Time;durP1;ratioP1;P1;durP2;ratioP2;P2;SDS_P1;SDS_P2;PMS_P1;PMS_P2;Temp;Humidity;BMP_temperature;BMP_pressure;BME280_temperature;BME280_humidity;BME280_pressure;Samples;Min_cycle;Max_cycle;Signal;HPM_P1;HPM_P2
2023/11/29 00:01:34;;;;;;;17.77;7.43;;;0.00;1.00;;;;;;5077830;28;20263;-81
2023/11/29 00:04:01;;;;;;;19.47;10.40;;;0.00;31.70;;;;;;5077388;28;20206;-80
2023/11/29 00:06:28;;;;;;;17.73;9.37;;;0.00;1.00;;;;;;5076864;28;20210;-81
2023/11/29 00:08:57;;;;;;;18.83;9.80;;;0.00;46.40;;;;;;5082477;28;20222;-80
2023/11/29 00:11:25;;;;;;;18.70;9.20;;;0.00;43.90;;;;;;5072694;28;20297;-80
2023/11/29 00:13:52;;;;;;;18.60;10.17;;;0.00;99.90;;;;;;5061372;28;20219;-79
2023/11/29 00:16:19;;;;;;;17.73;9.90;;;0.10;99.90;;;;;;5061817;28;20198;-81
2023/11/29 00:18:46;;;;;;;16.67;8.80;;;0.10;99.90;;;;;;5064406;28;20284;-79
2023/11/29 00:21:12;;;;;;;17.50;9.73;;;0.10;99.90;;;;;;5088423;28;20194;-80
2023/11/29 00:23:39;;;;;;;16.43;9.20;;;0.20;99.90;;;;;;5082738;28;20644;-81
2023/11/29 00:26:06;;;;;;;18.20;9.80;;;0.60;99.90;;;;;;5081122;28;20211;-79
2023/11/29 00:28:34;;;;;;;17.97;10.03;;;0.10;99.90;;;;;;5062756;28;20611;-82
2023/11/29 00:31:01;;;;;;;17.57;9.20;;;0.10;99.90;;;;;;5066555;28;20198;-81
2023/11/29 00:33:28;;;;;;;16.63;10.37;;;0.20;99.90;;;;;;5080633;28;20765;-80
2023/11/29 00:35:55;;;;;;;17.20;9.57;;;0.20;99.90;;;;;;5075951;28;20689;-81
2023/11/29 00:38:23;;;;;;;16.07;9.07;;;0.20;99.90;;;;;;5060508;28;20237;-81
2023/11/29 00:40:51;;;;;;;18.83;9.37;;;0.20;35.90;;;;;;5074781;28;20206;-80
2023/11/29 00:43:18;;;;;;;16.60;8.53;;;0.10;99.90;;;;;;5071079;28;20267;-80
2023/11/29 00:45:46;;;;;;;19.67;10.30;;;0.20;99.90;;;;;;5080153;28;20681;-79
2023/11/29 00:48:13;;;;;;;16.93;9.10;;;0.20;99.90;;;;;;5074622;28;20214;-81
2023/11/29 00:50:39;;;;;;;17.37;9.63;;;0.20;99.90;;;;;;5080596;28;20206;-80
2023/11/29 00:53:06;;;;;;;17.73;8.93;;;0.20;99.90;;;;;;5080599;28;20262;-81
2023/11/29 00:55:33;;;;;;;19.60;10.07;;;0.30;90.10;;;;;;5079207;28;20206;-81
2023/11/29 00:58:00;;;;;;;17.13;9.00;;;0.30;99.90;;;;;;5080599;28;20690;-80
2023/11/29 01:00:28;;;;;;;17.60;9.80;;;0.30;62.80;;;;;;5080153;28;20270;-79
2023/11/29 01:02:57;;;;;;;14.10;8.23;;;0.30;75.70;;;;;;5080476;28;20882;-80
2023/11/29 01:05:23;;;;;;;16.73;8.97;;;0.30;99.90;;;;;;5081550;28;20260;-78
2023/11/29 01:07:49;;;;;;;16.10;9.30;;;0.30;37.30;;;;;;5080652;28;20226;-79
2023/11/29 01:10:16;;;;;;;17.90;9.70;;;0.30;99.90;;;;;;5080502;28;20198;-81
2023/11/29 01:12:44;;;;;;;16.60;8.90;;;0.30;99.90;;;;;;5082610;28;20274;-81
2023/11/29 01:15:11;;;;;;;18.43;9.67;;;0.30;99.90;;;;;;5075129;28;20300;-79
2023/11/29 01:17:38;;;;;;;15.53;9.07;;;0.40;99.90;;;;;;5081904;28;20293;-77
2023/11/29 01:20:07;;;;;;;16.60;8.73;;;0.40;99.90;;;;;;5095338;28;20206;-81
2023/11/29 01:22:34;;;;;;;17.07;8.63;;;0.40;18.80;;;;;;5071687;28;20199;-79
2023/11/29 01:25:01;;;;;;;16.33;8.37;;;0.40;99.90;;;;;;5060516;28;20215;-81
2023/11/29 01:27:30;;;;;;;16.70;9.67;;;0.40;99.90;;;;;;5060112;28;20298;-81
2023/11/29 01:29:57;;;;;;;17.97;9.97;;;0.30;1.00;;;;;;5079872;28;20291;-81
2023/11/29 01:32:24;;;;;;;14.67;7.47;;;0.20;99.90;;;;;;5080192;28;20191;-80
2023/11/29 01:34:51;;;;;;;16.53;8.10;;;0.20;1.00;;;;;;5080283;28;20637;-78
2023/11/29 01:37:20;;;;;;;17.57;9.70;;;0.10;1.00;;;;;;5080665;28;20202;-81
2023/11/29 01:39:48;;;;;;;17.17;10.37;;;0.10;1.00;;;;;;5079635;28;20238;-81
2023/11/29 01:42:15;;;;;;;18.53;10.27;;;0.00;3.80;;;;;;5073711;28;20218;-83
2023/11/29 01:44:42;;;;;;;18.37;10.47;;;0.00;99.90;;;;;;5060775;28;20245;-81
2023/11/29 01:47:13;;;;;;;16.87;9.33;;;-0.10;1.00;;;;;;5077258;28;20202;-81
2023/11/29 01:49:40;;;;;;;16.50;9.73;;;0.00;1.00;;;;;;5079711;28;20218;-80
2023/11/29 01:52:08;;;;;;;18.73;10.00;;;-0.10;1.00;;;;;;5079998;28;20209;-79
2023/11/29 01:54:36;;;;;;;19.03;9.83;;;-0.10;1.00;;;;;;5065402;28;20241;-81
2023/11/29 01:57:04;;;;;;;16.37;9.50;;;-0.10;18.30;;;;;;5059968;28;20203;-79
2023/11/29 01:59:30;;;;;;;19.77;11.20;;;-0.10;1.00;;;;;;5072937;28;20238;-80
2023/11/29 02:01:57;;;;;;;20.27;10.90;;;-0.10;1.00;;;;;;5083065;28;20197;-81
2023/11/29 02:04:24;;;;;;;18.30;9.53;;;-0.10;1.00;;;;;;5083315;28;20198;-81
2023/11/29 02:06:51;;;;;;;20.60;10.13;;;-0.10;29.90;;;;;;5080413;28;20216;-81
2023/11/29 02:09:18;;;;;;;18.87;10.27;;;0.00;99.90;;;;;;5080188;28;20771;-80
2023/11/29 02:11:47;;;;;;;16.73;9.30;;;0.10;1.00;;;;;;5080008;28;20237;-81
2023/11/29 02:14:13;;;;;;;18.23;10.97;;;0.10;1.00;;;;;;5079459;28;20225;-79
2023/11/29 02:16:40;;;;;;;18.73;10.27;;;0.10;1.00;;;;;;5080360;28;20676;-79
2023/11/29 02:19:07;;;;;;;16.53;9.80;;;0.20;1.00;;;;;;5073279;28;20218;-80
2023/11/29 02:21:34;;;;;;;20.30;11.47;;;0.20;99.90;;;;;;5078957;28;20217;-78
2023/11/29 02:24:05;;;;;;;18.10;10.30;;;0.20;99.90;;;;;;5082414;28;20217;-81
2023/11/29 02:26:34;;;;;;;18.80;10.00;;;0.20;99.90;;;;;;5087069;28;20200;-82
2023/11/29 02:29:03;;;;;;;18.37;10.30;;;0.20;83.80;;;;;;5080381;28;20210;-80
2023/11/29 02:31:30;;;;;;;17.67;9.10;;;0.20;99.90;;;;;;5069168;28;20203;-82
2023/11/29 02:33:58;;;;;;;18.23;9.77;;;0.20;99.90;;;;;;5070662;28;20673;-80
2023/11/29 02:36:25;;;;;;;19.27;9.10;;;0.40;99.90;;;;;;5083262;28;20210;-80
2023/11/29 02:38:52;;;;;;;16.53;9.80;;;0.20;99.90;;;;;;5068335;28;20274;-82
2023/11/29 02:41:19;;;;;;;16.73;9.67;;;0.20;1.00;;;;;;5076278;28;20197;-83
2023/11/29 02:43:50;;;;;;;16.57;9.83;;;0.20;1.00;;;;;;5085604;28;20210;-80
2023/11/29 02:46:17;;;;;;;19.37;9.67;;;0.20;99.90;;;;;;5078124;28;20214;-80
2023/11/29 02:48:44;;;;;;;16.63;9.40;;;0.20;1.00;;;;;;5078390;28;20256;-82
2023/11/29 02:51:12;;;;;;;17.40;9.57;;;0.40;1.00;;;;;;5070680;28;20205;-82
2023/11/29 02:53:39;;;;;;;17.63;10.23;;;0.10;99.90;;;;;;5077525;28;20206;-82
2023/11/29 02:56:08;;;;;;;16.93;8.40;;;0.10;76.40;;;;;;5077001;28;20199;-82
2023/11/29 02:58:35;;;;;;;18.27;10.30;;;0.10;1.00;;;;;;5078612;28;20233;-81
2023/11/29 03:01:03;;;;;;;17.77;10.07;;;0.10;81.00;;;;;;5078476;28;20206;-81
2023/11/29 03:03:30;;;;;;;17.53;8.63;;;0.30;99.90;;;;;;5085485;28;20191;-80
2023/11/29 03:05:56;;;;;;;16.37;9.40;;;0.10;99.90;;;;;;5087595;28;20202;-83
2023/11/29 03:08:23;;;;;;;17.50;9.67;;;0.10;1.00;;;;;;5079520;28;20681;-82
2023/11/29 03:10:49;;;;;;;17.33;10.00;;;0.20;1.00;;;;;;5079871;28;20265;-82
2023/11/29 03:13:16;;;;;;;15.67;9.37;;;0.10;99.90;;;;;;5078595;28;20206;-80
2023/11/29 03:15:43;;;;;;;16.43;8.40;;;0.10;99.90;;;;;;5080278;28;20212;-82
2023/11/29 03:18:11;;;;;;;17.90;9.70;;;0.10;99.90;;;;;;5091360;28;20592;-82
2023/11/29 03:20:38;;;;;;;16.50;9.90;;;0.10;99.90;;;;;;5083508;28;20208;-80
2023/11/29 03:23:05;;;;;;;20.97;11.13;;;0.20;99.90;;;;;;5079132;28;20202;-81
2023/11/29 03:25:32;;;;;;;16.77;9.57;;;0.20;1.00;;;;;;5073394;28;20195;-80
2023/11/29 03:27:58;;;;;;;18.17;10.50;;;0.30;1.00;;;;;;5075869;28;20291;-80
2023/11/29 03:30:25;;;;;;;17.80;10.00;;;0.10;99.90;;;;;;5073488;28;20199;-80
2023/11/29 03:32:52;;;;;;;16.50;9.83;;;0.10;99.90;;;;;;5062280;28;20202;-81
2023/11/29 03:35:20;;;;;;;18.10;10.53;;;0.10;99.90;;;;;;5062437;28;20206;-83
2023/11/29 03:37:47;;;;;;;19.40;10.43;;;0.20;1.00;;;;;;5080511;28;20242;-81
2023/11/29 03:40:14;;;;;;;18.33;9.67;;;0.10;1.00;;;;;;5081711;28;20218;-81
2023/11/29 03:42:41;;;;;;;18.43;10.43;;;0.10;1.00;;;;;;5074423;28;20271;-81
2023/11/29 03:45:08;;;;;;;17.07;9.40;;;0.10;1.00;;;;;;5069852;28;20199;-81
2023/11/29 03:47:35;;;;;;;16.67;9.87;;;0.10;94.90;;;;;;5078527;28;20206;-82
2023/11/29 03:50:03;;;;;;;17.37;8.63;;;0.10;99.90;;;;;;5084631;28;20265;-82
2023/11/29 03:52:31;;;;;;;18.40;10.00;;;0.10;99.90;;;;;;5083516;28;20674;-81
2023/11/29 03:54:58;;;;;;;18.50;10.20;;;0.50;99.90;;;;;;5083640;28;20214;-80
2023/11/29 03:57:25;;;;;;;16.67;9.87;;;0.10;99.90;;;;;;5081800;28;20205;-80
2023/11/29 03:59:52;;;;;;;18.30;10.03;;;0.10;99.90;;;;;;5080141;28;20218;-81
2023/11/29 04:02:18;;;;;;;17.43;10.13;;;0.00;99.90;;;;;;5068960;28;20213;-81
2023/11/29 04:04:45;;;;;;;17.97;9.60;;;0.10;99.90;;;;;;5080630;28;20234;-81
2023/11/29 04:07:12;;;;;;;17.53;10.00;;;0.00;99.90;;;;;;5080715;28;20198;-83
2023/11/29 04:09:42;;;;;;;17.00;10.07;;;0.00;99.90;;;;;;5073193;28;20285;-79
2023/11/29 04:12:10;;;;;;;19.00;10.20;;;0.10;99.90;;;;;;5073005;28;20210;-79
2023/11/29 04:14:37;;;;;;;18.40;10.07;;;0.10;99.90;;;;;;5079606;28;20206;-85
2023/11/29 04:17:04;;;;;;;21.57;10.20;;;0.10;99.90;;;;;;5079716;28;20569;-83
2023/11/29 04:19:31;;;;;;;19.97;11.20;;;0.10;99.90;;;;;;5079366;28;20232;-83
2023/11/29 04:21:57;;;;;;;17.37;10.03;;;0.10;99.90;;;;;;5081052;28;20644;-82
2023/11/29 04:24:24;;;;;;;18.53;10.70;;;0.10;99.90;;;;;;5082690;28;20234;-83
2023/11/29 04:26:52;;;;;;;17.10;9.57;;;0.10;99.90;;;;;;5081862;28;20206;-81
2023/11/29 04:29:19;;;;;;;17.70;10.10;;;0.10;99.90;;;;;;5083856;28;20218;-82
2023/11/29 04:31:46;;;;;;;16.87;9.73;;;0.10;99.90;;;;;;5087104;28;20233;-80
2023/11/29 04:34:13;;;;;;;15.93;9.03;;;0.10;99.90;;;;;;5083852;28;20643;-81
2023/11/29 04:36:40;;;;;;;16.20;8.17;;;0.10;99.90;;;;;;5084827;28;20222;-81
2023/11/29 04:39:09;;;;;;;17.47;9.50;;;0.20;99.90;;;;;;5080331;28;20222;-82
2023/11/29 04:41:36;;;;;;;16.90;9.03;;;0.20;99.90;;;;;;5084179;28;20263;-82
2023/11/29 04:44:04;;;;;;;13.30;7.73;;;0.20;99.90;;;;;;5083219;28;20233;-82
2023/11/29 04:46:31;;;;;;;19.27;9.67;;;0.20;99.90;;;;;;5084595;28;20198;-82
2023/11/29 04:48:58;;;;;;;16.67;8.53;;;0.20;99.90;;;;;;5084689;28;20229;-82
2023/11/29 04:51:26;;;;;;;16.47;8.40;;;0.30;99.90;;;;;;5075435;28;20211;-83
2023/11/29 04:53:52;;;;;;;15.17;8.73;;;0.30;99.90;;;;;;5078886;28;20204;-82
2023/11/29 04:56:19;;;;;;;15.80;8.90;;;0.30;1.00;;;;;;5086600;28;20212;-82
2023/11/29 04:58:46;;;;;;;15.67;7.93;;;0.40;1.00;;;;;;5078664;28;20210;-82
2023/11/29 05:01:15;;;;;;;15.30;7.77;;;0.40;1.00;;;;;;5073953;28;20206;-81
2023/11/29 05:03:41;;;;;;;16.00;8.47;;;0.40;1.00;;;;;;5077241;28;20199;-83
2023/11/29 05:06:10;;;;;;;15.80;7.80;;;0.40;8.70;;;;;;5078179;28;20578;-82
2023/11/29 05:08:36;;;;;;;15.60;8.70;;;0.40;92.50;;;;;;5083232;28;20571;-83
2023/11/29 05:11:05;;;;;;;15.97;7.90;;;0.40;83.80;;;;;;5083151;28;20269;-82
2023/11/29 05:13:32;;;;;;;16.80;8.30;;;0.40;1.00;;;;;;5080018;28;20684;-82
2023/11/29 05:15:59;;;;;;;20.50;8.10;;;0.30;1.00;;;;;;5074768;28;20231;-81
2023/11/29 05:18:27;;;;;;;13.93;8.10;;;0.30;1.00;;;;;;5069720;28;20301;-81
2023/11/29 05:20:54;;;;;;;15.50;8.20;;;0.30;1.00;;;;;;5088800;28;20245;-81
2023/11/29 05:23:23;;;;;;;16.03;8.73;;;0.30;1.00;;;;;;5076852;28;20539;-80
2023/11/29 05:25:50;;;;;;;16.17;8.03;;;0.30;99.90;;;;;;5081780;28;20206;-81
2023/11/29 05:28:17;;;;;;;13.27;7.40;;;0.30;1.00;;;;;;5083398;28;20226;-81
2023/11/29 05:30:44;;;;;;;14.73;8.17;;;0.40;99.90;;;;;;5083339;28;20198;-81
2023/11/29 05:33:10;;;;;;;15.90;8.77;;;0.50;1.00;;;;;;5080499;28;20213;-82
2023/11/29 05:35:39;;;;;;;16.93;7.97;;;0.50;99.90;;;;;;5082605;28;20267;-82
2023/11/29 05:38:05;;;;;;;15.70;8.03;;;0.40;90.00;;;;;;5080310;28;20222;-81
2023/11/29 05:40:32;;;;;;;18.37;7.67;;;0.40;99.90;;;;;;5077072;28;20221;-83
2023/11/29 05:42:59;;;;;;;13.03;7.07;;;0.50;1.00;;;;;;5075696;28;20206;-82
2023/11/29 05:45:26;;;;;;;15.30;7.00;;;0.50;1.00;;;;;;5080865;28;20295;-83
2023/11/29 05:47:53;;;;;;;15.83;7.37;;;0.60;99.90;;;;;;5082797;28;20308;-82
2023/11/29 05:50:20;;;;;;;13.47;7.60;;;0.50;99.90;;;;;;5083086;28;20198;-81
2023/11/29 05:52:48;;;;;;;13.13;7.47;;;0.50;99.90;;;;;;5087237;28;20209;-82
2023/11/29 05:55:15;;;;;;;14.83;7.37;;;0.50;99.90;;;;;;5077469;28;20217;-82
2023/11/29 05:57:44;;;;;;;11.80;6.27;;;0.60;99.90;;;;;;5080206;28;21047;-82
2023/11/29 06:00:14;;;;;;;14.60;7.90;;;0.80;13.70;;;;;;5082124;28;20214;-81
2023/11/29 06:02:41;;;;;;;13.20;7.00;;;0.80;97.50;;;;;;5081193;28;20228;-82
2023/11/29 06:05:08;;;;;;;14.13;6.87;;;0.90;1.00;;;;;;5077262;28;20685;-81
2023/11/29 06:07:36;;;;;;;15.37;7.00;;;1.00;1.00;;;;;;5075772;28;20203;-81
2023/11/29 06:10:05;;;;;;;12.90;6.10;;;1.10;1.00;;;;;;5082066;28;20202;-80
2023/11/29 06:12:33;;;;;;;13.63;7.50;;;1.10;1.00;;;;;;5074145;28;20202;-82
2023/11/29 06:15:03;;;;;;;14.87;7.37;;;1.10;1.00;;;;;;5079530;28;20210;-81
2023/11/29 06:17:31;;;;;;;14.13;6.97;;;1.10;1.00;;;;;;5080621;28;20627;-81
2023/11/29 06:19:58;;;;;;;13.20;7.00;;;1.10;1.00;;;;;;5077753;28;20229;-81
2023/11/29 06:22:25;;;;;;;12.47;7.07;;;1.10;1.00;;;;;;5081972;28;20663;-82
2023/11/29 06:24:53;;;;;;;12.87;6.23;;;1.10;1.00;;;;;;5072362;28;20207;-81
2023/11/29 06:27:21;;;;;;;13.00;6.17;;;1.00;99.90;;;;;;5074948;28;20750;-82
2023/11/29 06:29:48;;;;;;;13.53;8.00;;;1.10;99.90;;;;;;5080978;28;20222;-81
2023/11/29 06:32:14;;;;;;;13.33;6.97;;;1.00;99.90;;;;;;5081664;28;20206;-82
2023/11/29 06:34:41;;;;;;;13.17;7.67;;;1.00;1.00;;;;;;5082222;28;20186;-82
2023/11/29 06:37:08;;;;;;;12.77;7.07;;;1.00;1.00;;;;;;5081213;28;20232;-81
2023/11/29 06:39:35;;;;;;;11.07;6.97;;;1.00;1.00;;;;;;5082178;28;20240;-82
2023/11/29 06:42:02;;;;;;;15.97;7.33;;;1.00;1.00;;;;;;5079450;28;20289;-83
2023/11/29 06:44:30;;;;;;;13.47;6.70;;;1.00;1.00;;;;;;5077987;28;20213;-81
2023/11/29 06:46:58;;;;;;;9.10;5.63;;;1.00;1.00;;;;;;5078091;28;20276;-81
2023/11/29 06:49:25;;;;;;;14.67;6.97;;;1.00;1.00;;;;;;5079997;28;20240;-81
2023/11/29 06:51:53;;;;;;;12.07;6.50;;;1.40;44.30;;;;;;5078866;28;20819;-82
2023/11/29 06:54:20;;;;;;;12.50;5.97;;;1.20;1.00;;;;;;5078990;28;20208;-81
2023/11/29 06:56:47;;;;;;;13.63;7.27;;;1.30;1.00;;;;;;5079089;28;20198;-82
2023/11/29 06:59:15;;;;;;;13.13;6.83;;;1.20;1.00;;;;;;5076035;28;20276;-82
2023/11/29 07:01:43;;;;;;;12.27;7.00;;;1.20;1.00;;;;;;5076116;28;20205;-82
2023/11/29 07:04:10;;;;;;;10.97;6.23;;;1.30;99.90;;;;;;5072996;28;20223;-81
2023/11/29 07:06:39;;;;;;;13.07;7.47;;;1.30;1.00;;;;;;5069305;28;20238;-82
2023/11/29 07:09:06;;;;;;;11.57;6.20;;;1.30;99.90;;;;;;5071846;28;20218;-81
2023/11/29 07:11:34;;;;;;;12.37;5.57;;;1.30;1.00;;;;;;5088014;28;20563;-82
2023/11/29 07:14:01;;;;;;;11.93;6.33;;;1.40;99.90;;;;;;5076294;28;20202;-83
2023/11/29 07:16:28;;;;;;;11.17;6.40;;;1.40;99.90;;;;;;5075805;28;20234;-81
2023/11/29 07:18:56;;;;;;;13.17;6.57;;;1.40;99.90;;;;;;5072607;28;20623;-82
2023/11/29 07:21:23;;;;;;;10.60;5.63;;;1.40;99.90;;;;;;5077039;28;20622;-82
2023/11/29 07:23:50;;;;;;;9.90;5.77;;;1.40;1.00;;;;;;5068473;28;20202;-82
2023/11/29 07:26:17;;;;;;;13.40;6.77;;;1.50;99.90;;;;;;5086897;28;20568;-81
2023/11/29 07:28:45;;;;;;;11.30;6.23;;;1.50;99.90;;;;;;5079807;28;20261;-83
2023/11/29 07:31:12;;;;;;;10.20;5.70;;;1.50;99.90;;;;;;5067691;28;20202;-82
2023/11/29 07:33:38;;;;;;;10.90;6.03;;;1.50;99.90;;;;;;5075720;28;20209;-82
2023/11/29 07:36:11;;;;;;;13.73;6.83;;;1.40;1.00;;;;;;5093732;28;20198;-82
2023/11/29 07:38:38;;;;;;;12.33;6.83;;;1.30;99.90;;;;;;5082495;28;20306;-83
2023/11/29 07:41:05;;;;;;;12.43;6.73;;;1.30;1.00;;;;;;5080185;28;20737;-80
2023/11/29 07:43:32;;;;;;;11.00;5.87;;;1.10;1.00;;;;;;5068684;28;20203;-81
2023/11/29 07:45:59;;;;;;;11.50;6.87;;;1.10;1.00;;;;;;5076662;28;20228;-81
2023/11/29 07:48:26;;;;;;;12.03;7.23;;;1.10;17.10;;;;;;5078666;28;20340;-81
2023/11/29 07:50:54;;;;;;;12.67;6.60;;;1.10;99.90;;;;;;5079089;28;20234;-80
2023/11/29 07:53:23;;;;;;;14.10;6.70;;;1.10;99.90;;;;;;5073966;28;20203;-82
2023/11/29 07:55:49;;;;;;;11.53;6.37;;;1.10;1.00;;;;;;5079067;28;20587;-81
2023/11/29 07:58:16;;;;;;;14.50;6.50;;;1.60;1.00;;;;;;5071613;28;20297;-83
2023/11/29 08:00:43;;;;;;;13.37;6.53;;;1.10;1.00;;;;;;5067508;28;20306;-82
2023/11/29 08:03:10;;;;;;;14.17;6.67;;;1.20;99.90;;;;;;5079618;28;20650;-79
2023/11/29 08:05:38;;;;;;;12.93;6.73;;;1.20;1.00;;;;;;5077701;28;20313;-81
2023/11/29 08:08:06;;;;;;;11.70;6.33;;;1.30;99.90;;;;;;5080617;28;20290;-83
2023/11/29 08:10:34;;;;;;;14.40;6.73;;;1.30;1.00;;;;;;5079443;28;20206;-80
2023/11/29 08:13:01;;;;;;;14.13;7.17;;;1.40;1.00;;;;;;5079299;28;20243;-81
2023/11/29 08:15:28;;;;;;;12.33;7.63;;;1.40;1.00;;;;;;5070244;28;20261;-81
2023/11/29 08:17:55;;;;;;;12.13;7.20;;;1.40;1.00;;;;;;5080851;28;20225;-81
2023/11/29 08:20:22;;;;;;;13.53;6.60;;;1.40;1.00;;;;;;5075532;28;20234;-82
2023/11/29 08:22:50;;;;;;;12.53;6.50;;;1.50;99.90;;;;;;5080277;28;20726;-81
2023/11/29 08:25:17;;;;;;;13.20;6.43;;;1.50;99.90;;;;;;5077650;28;20206;-82
2023/11/29 08:27:45;;;;;;;11.50;6.87;;;1.50;5.60;;;;;;5073717;28;20203;-81
2023/11/29 08:30:13;;;;;;;12.70;6.73;;;1.50;1.00;;;;;;5075632;28;20262;-81
2023/11/29 08:32:41;;;;;;;13.03;6.43;;;1.60;1.00;;;;;;5080096;28;20212;-84
2023/11/29 08:35:09;;;;;;;13.63;7.10;;;1.60;1.00;;;;;;5075910;28;20213;-82
2023/11/29 08:37:35;;;;;;;11.13;5.30;;;1.60;1.00;;;;;;5074971;28;20584;-83
2023/11/29 08:40:03;;;;;;;10.83;5.43;;;1.60;1.00;;;;;;5073592;28;20596;-83
2023/11/29 08:42:30;;;;;;;13.40;7.70;;;1.60;1.00;;;;;;5082399;28;20206;-83
2023/11/29 08:44:59;;;;;;;15.30;7.13;;;1.60;1.00;;;;;;5077604;28;20238;-83
2023/11/29 08:47:26;;;;;;;15.20;7.33;;;1.60;1.00;;;;;;5075822;28;20281;-82
2023/11/29 08:49:52;;;;;;;11.87;6.57;;;1.60;99.90;;;;;;5074557;28;20249;-84
2023/11/29 08:52:22;;;;;;;14.20;6.23;;;1.60;37.60;;;;;;5078745;28;20202;-84
2023/11/29 08:54:50;;;;;;;12.67;6.30;;;1.70;1.00;;;;;;5074934;28;20237;-84
2023/11/29 08:57:17;;;;;;;14.00;6.60;;;1.70;1.00;;;;;;5081117;28;20263;-82
2023/11/29 08:59:44;;;;;;;10.30;5.43;;;1.80;1.00;;;;;;5079293;28;20242;-82
2023/11/29 09:02:12;;;;;;;11.60;6.67;;;1.80;1.00;;;;;;5080874;28;20228;-83
2023/11/29 09:04:40;;;;;;;10.80;6.17;;;1.90;1.00;;;;;;5077704;28;20575;-82
2023/11/29 09:07:07;;;;;;;12.43;6.43;;;2.00;1.00;;;;;;5077999;28;20202;-82
2023/11/29 09:09:34;;;;;;;11.10;6.20;;;2.00;1.00;;;;;;5073601;28;20292;-80
2023/11/29 09:12:03;;;;;;;11.97;6.60;;;1.90;1.00;;;;;;5078333;28;20212;-81
2023/11/29 09:14:30;;;;;;;11.90;6.80;;;1.90;1.00;;;;;;5073848;28;20262;-83
2023/11/29 09:16:57;;;;;;;11.93;6.63;;;1.90;1.00;;;;;;5075553;28;20209;-80
2023/11/29 09:19:25;;;;;;;11.20;6.40;;;1.80;1.00;;;;;;5075482;28;20222;-82
2023/11/29 09:21:52;;;;;;;10.73;5.83;;;1.80;1.00;;;;;;5071591;28;20628;-84
2023/11/29 09:24:19;;;;;;;10.93;5.80;;;1.80;1.00;;;;;;5072903;28;20206;-84
2023/11/29 09:26:46;;;;;;;10.23;5.67;;;1.80;1.00;;;;;;5077579;28;20229;-81
2023/11/29 09:29:13;;;;;;;11.87;6.07;;;1.80;1.00;;;;;;5081393;28;20223;-81
2023/11/29 09:31:40;;;;;;;10.67;6.50;;;1.80;1.00;;;;;;5065724;28;20658;-82
2023/11/29 09:34:07;;;;;;;9.63;5.90;;;1.80;1.00;;;;;;5082284;28;20198;-80
2023/11/29 09:36:36;;;;;;;12.87;5.83;;;1.80;1.00;;;;;;5074960;28;20294;-81
2023/11/29 09:39:11;;;;;;;10.37;6.80;;;1.90;1.00;;;;;;5085544;28;20221;-81
2023/11/29 09:41:38;;;;;;;11.73;5.90;;;1.90;99.90;;;;;;5075848;28;20299;-82
2023/11/29 09:44:05;;;;;;;12.40;6.20;;;2.00;99.90;;;;;;5074608;28;20212;-80
2023/11/29 09:46:32;;;;;;;10.10;5.60;;;2.10;99.90;;;;;;5076756;28;20246;-82
2023/11/29 09:49:00;;;;;;;14.20;6.47;;;2.00;1.00;;;;;;5080019;28;20305;-81
2023/11/29 09:51:28;;;;;;;13.87;6.67;;;2.10;1.00;;;;;;5075524;28;20195;-81
2023/11/29 09:53:57;;;;;;;11.43;7.17;;;2.00;99.90;;;;;;5076774;28;20293;-82
2023/11/29 09:56:24;;;;;;;14.03;7.07;;;2.00;99.90;;;;;;5072121;28;20613;-82
2023/11/29 09:58:51;;;;;;;11.47;6.43;;;2.00;99.90;;;;;;5075694;28;20225;-81
2023/11/29 10:01:18;;;;;;;13.10;6.50;;;1.90;87.50;;;;;;5072547;28;20210;-81
2023/11/29 10:04:01;;;;;;;11.80;6.83;;;2.00;96.00;;;;;;5080434;28;20201;-82
2023/11/29 10:06:28;;;;;;;12.57;6.80;;;1.90;1.00;;;;;;5070034;28;20209;-79
2023/11/29 10:08:56;;;;;;;11.60;6.23;;;1.90;1.00;;;;;;5076713;28;20224;-79
2023/11/29 10:11:25;;;;;;;13.70;7.30;;;1.90;99.90;;;;;;5074244;28;20194;-82
2023/11/29 10:13:52;;;;;;;11.43;6.60;;;1.80;1.00;;;;;;5066875;28;20203;-83
2023/11/29 10:16:20;;;;;;;14.20;6.87;;;1.70;99.90;;;;;;5078287;28;20195;-82
2023/11/29 10:18:48;;;;;;;12.67;6.90;;;1.60;99.90;;;;;;5072797;28;20678;-83
2023/11/29 10:21:15;;;;;;;11.90;7.00;;;1.60;1.00;;;;;;5072427;28;20222;-82
2023/11/29 10:23:44;;;;;;;12.20;7.00;;;1.60;1.00;;;;;;5076064;28;20210;-81
2023/11/29 10:26:13;;;;;;;13.30;7.30;;;1.70;1.00;;;;;;5074453;28;20195;-83
2023/11/29 10:28:41;;;;;;;13.00;6.97;;;1.70;1.00;;;;;;5080498;28;20309;-82
2023/11/29 10:31:09;;;;;;;14.83;8.87;;;1.80;1.00;;;;;;5080337;28;20194;-82
2023/11/29 10:33:37;;;;;;;10.30;6.27;;;1.80;1.00;;;;;;5062278;28;20213;-82
2023/11/29 10:36:05;;;;;;;12.40;6.90;;;1.90;99.90;;;;;;5068189;28;20582;-81
2023/11/29 10:38:38;;;;;;;13.03;6.80;;;1.90;99.90;;;;;;5070570;28;20610;-81
2023/11/29 10:41:06;;;;;;;14.00;6.53;;;1.90;99.90;;;;;;5067332;28;20218;-81
2023/11/29 10:43:38;;;;;;;11.50;6.33;;;1.90;1.00;;;;;;5082261;28;20202;-82
2023/11/29 10:46:12;;;;;;;14.03;7.03;;;1.80;1.00;;;;;;5081316;28;20202;-81
2023/11/29 10:48:45;;;;;;;11.37;7.83;;;1.90;1.00;;;;;;5056653;28;20226;-81
2023/11/29 10:51:13;;;;;;;12.43;6.70;;;1.90;3.10;;;;;;5062016;28;20190;-83
2023/11/29 10:53:40;;;;;;;14.47;7.20;;;1.80;1.00;;;;;;5061508;28;20256;-81
2023/11/29 10:56:09;;;;;;;13.70;6.20;;;1.80;99.90;;;;;;5079159;28;20233;-81
2023/11/29 10:58:45;;;;;;;14.83;7.20;;;1.90;1.00;;;;;;5073082;28;20222;-81
2023/11/29 11:01:13;;;;;;;14.13;7.37;;;1.80;1.00;;;;;;5066693;28;20228;-81
2023/11/29 11:03:42;;;;;;;12.27;6.13;;;1.90;1.00;;;;;;5074875;28;20213;-81
2023/11/29 11:06:35;;;;;;;13.87;7.13;;;1.80;99.90;;;;;;5077304;28;20242;-81
2023/11/29 11:09:02;;;;;;;12.20;6.73;;;1.80;1.00;;;;;;5064006;28;20218;-81
2023/11/29 11:11:45;;;;;;;11.97;6.37;;;1.70;99.90;;;;;;5073902;28;20297;-81
2023/11/29 11:14:21;;;;;;;11.10;5.47;;;1.80;99.90;;;;;;5076465;28;20208;-81
2023/11/29 11:16:58;;;;;;;14.83;6.90;;;1.70;1.00;;;;;;5074189;28;20197;-81
2023/11/29 11:19:35;;;;;;;10.57;6.17;;;1.70;1.00;;;;;;5072514;28;20222;-81
2023/11/29 11:22:04;;;;;;;13.60;7.20;;;1.60;1.00;;;;;;5078533;28;20243;-81
2023/11/29 11:24:56;;;;;;;12.40;6.43;;;1.60;1.00;;;;;;5073505;28;20199;-81
2023/11/29 11:27:25;;;;;;;12.83;6.93;;;1.60;54.60;;;;;;5064502;28;20198;-80
2023/11/29 11:29:54;;;;;;;12.60;6.07;;;1.50;99.90;;;;;;5069437;28;20329;-81
2023/11/29 11:32:45;;;;;;;10.33;6.07;;;1.50;99.90;;;;;;5068081;28;20194;-82
2023/11/29 11:35:32;;;;;;;9.90;6.40;;;1.60;99.90;;;;;;5069016;28;20198;-81
2023/11/29 11:38:00;;;;;;;11.07;6.37;;;1.50;99.90;;;;;;5071659;28;20639;-81
2023/11/29 11:40:28;;;;;;;11.53;6.40;;;1.60;99.90;;;;;;5064755;28;20669;-80
2023/11/29 11:42:56;;;;;;;12.93;7.23;;;1.50;99.90;;;;;;5078483;28;20263;-81
2023/11/29 11:45:29;;;;;;;10.73;7.53;;;1.60;99.90;;;;;;5065141;28;20199;-82
2023/11/29 11:47:56;;;;;;;11.30;7.43;;;1.70;1.00;;;;;;5072761;28;20271;-82
2023/11/29 11:50:24;;;;;;;13.20;7.00;;;1.70;1.00;;;;;;5068038;28;20199;-81
2023/11/29 11:52:51;;;;;;;13.53;7.30;;;1.80;99.90;;;;;;5075510;28;20228;-82
2023/11/29 11:55:18;;;;;;;13.37;7.43;;;1.80;1.00;;;;;;5071901;28;20573;-82
2023/11/29 11:57:46;;;;;;;13.03;7.33;;;1.80;99.90;;;;;;5082101;28;20194;-81
2023/11/29 12:00:15;;;;;;;13.10;7.93;;;1.80;1.00;;;;;;5073612;28;20211;-81
2023/11/29 12:02:43;;;;;;;10.50;6.63;;;1.90;1.00;;;;;;5067830;28;20218;-81
2023/11/29 12:05:10;;;;;;;10.93;7.50;;;1.90;1.00;;;;;;5071504;28;20696;-81
2023/11/29 12:07:41;;;;;;;11.33;7.73;;;1.90;1.00;;;;;;5067730;28;20234;-80
2023/11/29 12:10:10;;;;;;;10.27;6.90;;;1.90;99.90;;;;;;5070706;28;20209;-81
2023/11/29 12:12:37;;;;;;;11.57;7.87;;;1.90;99.90;;;;;;5079893;28;20289;-83
2023/11/29 12:15:05;;;;;;;13.20;7.20;;;2.00;25.70;;;;;;5077024;28;20611;-81
2023/11/29 12:17:36;;;;;;;13.07;7.73;;;2.10;1.00;;;;;;5075616;28;20579;-81
2023/11/29 12:20:05;;;;;;;10.37;6.20;;;2.20;1.00;;;;;;5077904;28;20207;-81
2023/11/29 12:22:33;;;;;;;9.83;6.00;;;2.20;1.00;;;;;;5079541;28;20223;-82
2023/11/29 12:25:00;;;;;;;10.40;7.60;;;2.20;72.20;;;;;;5084430;28;20639;-82
2023/11/29 12:27:28;;;;;;;10.53;5.87;;;2.20;1.00;;;;;;5080681;28;20248;-82
2023/11/29 12:29:58;;;;;;;9.47;6.60;;;2.30;1.00;;;;;;5077135;28;20221;-81
2023/11/29 12:32:28;;;;;;;11.07;5.67;;;2.30;1.00;;;;;;5073562;28;20211;-82
2023/11/29 12:34:56;;;;;;;9.00;5.53;;;2.30;1.00;;;;;;5070033;28;20745;-82
2023/11/29 12:37:26;;;;;;;11.73;5.67;;;2.20;99.90;;;;;;5080312;28;20572;-81
2023/11/29 12:39:56;;;;;;;8.93;5.30;;;2.20;99.90;;;;;;5077012;28;20313;-82
2023/11/29 12:42:23;;;;;;;7.90;4.77;;;2.20;99.90;;;;;;5071891;28;20246;-82
2023/11/29 12:44:50;;;;;;;10.77;5.87;;;2.20;99.90;;;;;;5070315;28;20207;-81
2023/11/29 12:47:21;;;;;;;9.10;5.50;;;2.20;99.90;;;;;;5079666;28;20203;-82
2023/11/29 12:49:48;;;;;;;13.03;7.63;;;2.20;1.00;;;;;;5076356;28;20226;-83
2023/11/29 12:52:15;;;;;;;10.33;6.07;;;2.20;1.00;;;;;;5078707;28;20205;-83
2023/11/29 12:54:43;;;;;;;9.10;6.43;;;2.20;1.00;;;;;;5080428;28;20225;-82